sensor_id;sensor_type;location;lat;lon;timestamp;P1;durP1;ratioP1;P2;durP2;ratioP2
5458;SDS011;2752;49.992;8.422;2022-12-07T00:01:47;20.00;;;8.67;;
5458;SDS011;2752;49.992;8.422;2022-12-07T00:04:16;22.83;;;9.37;;
5458;SDS011;2752;49.992;8.422;2022-12-07T00:06:44;18.17;;;8.77;;
5458;SDS011;2752;49.992;8.422;2022-12-07T00:09:12;16.30;;;8.50;;
5458;SDS011;2752;49.992;8.422;2022-12-07T00:11:41;29.40;;;8.80;;
5458;SDS011;2752;49.992;8.422;2022-12-07T00:14:10;32.93;;;10.13;;
5458;SDS011;2752;49.992;8.422;2022-12-07T00:16:38;21.60;;;9.50;;
5458;SDS011;2752;49.992;8.422;2022-12-07T00:19:05;16.83;;;8.43;;
5458;SDS011;2752;49.992;8.422;2022-12-07T00:21:34;18.67;;;8.70;;
5458;SDS011;2752;49.992;8.422;2022-12-07T00:24:02;19.63;;;9.50;;
5458;SDS011;2752;49.992;8.422;2022-12-07T00:26:31;24.50;;;9.83;;
5458;SDS011;2752;49.992;8.422;2022-12-07T00:29:00;22.60;;;9.20;;
5458;SDS011;2752;49.992;8.422;2022-12-07T00:31:30;24.87;;;10.43;;
5458;SDS011;2752;49.992;8.422;2022-12-07T00:34:00;25.70;;;10.30;;
5458;SDS011;2752;49.992;8.422;2022-12-07T00:36:27;24.10;;;10.33;;
5458;SDS011;2752;49.992;8.422;2022-12-07T00:38:57;16.53;;;8.33;;
5458;SDS011;2752;49.992;8.422;2022-12-07T00:41:25;19.47;;;9.00;;
5458;SDS011;2752;49.992;8.422;2022-12-07T00:43:53;17.27;;;9.17;;
5458;SDS011;2752;49.992;8.422;2022-12-07T00:46:20;19.63;;;7.80;;
5458;SDS011;2752;49.992;8.422;2022-12-07T00:48:48;19.03;;;8.70;;
5458;SDS011;2752;49.992;8.422;2022-12-07T00:51:16;19.13;;;8.07;;
5458;SDS011;2752;49.992;8.422;2022-12-07T00:53:45;15.93;;;8.63;;
5458;SDS011;2752;49.992;8.422;2022-12-07T00:56:14;17.73;;;8.50;;
5458;SDS011;2752;49.992;8.422;2022-12-07T00:58:43;12.57;;;7.60;;
5458;SDS011;2752;49.992;8.422;2022-12-07T01:01:10;15.77;;;7.70;;
5458;SDS011;2752;49.992;8.422;2022-12-07T01:03:37;17.07;;;7.47;;
5458;SDS011;2752;49.992;8.422;2022-12-07T01:06:04;18.20;;;8.43;;
5458;SDS011;2752;49.992;8.422;2022-12-07T01:08:31;16.77;;;8.73;;
5458;SDS011;2752;49.992;8.422;2022-12-07T01:10:59;27.37;;;8.30;;
5458;SDS011;2752;49.992;8.422;2022-12-07T01:13:28;14.10;;;7.17;;
5458;SDS011;2752;49.992;8.422;2022-12-07T01:15:56;18.67;;;7.03;;
5458;SDS011;2752;49.992;8.422;2022-12-07T01:18:24;16.17;;;8.30;;
5458;SDS011;2752;49.992;8.422;2022-12-07T01:20:58;17.30;;;8.40;;
5458;SDS011;2752;49.992;8.422;2022-12-07T01:23:26;14.97;;;7.90;;
5458;SDS011;2752;49.992;8.422;2022-12-07T01:25:54;17.83;;;7.53;;
5458;SDS011;2752;49.992;8.422;2022-12-07T01:28:21;18.47;;;8.00;;
5458;SDS011;2752;49.992;8.422;2022-12-07T01:30:55;15.57;;;7.93;;
5458;SDS011;2752;49.992;8.422;2022-12-07T01:33:27;13.30;;;6.77;;
5458;SDS011;2752;49.992;8.422;2022-12-07T01:35:54;15.37;;;6.70;;
5458;SDS011;2752;49.992;8.422;2022-12-07T01:38:21;20.17;;;7.67;;
5458;SDS011;2752;49.992;8.422;2022-12-07T01:40:53;16.93;;;6.40;;
5458;SDS011;2752;49.992;8.422;2022-12-07T01:43:20;14.30;;;6.90;;
5458;SDS011;2752;49.992;8.422;2022-12-07T01:45:48;13.83;;;6.87;;
5458;SDS011;2752;49.992;8.422;2022-12-07T01:48:17;15.90;;;6.80;;
5458;SDS011;2752;49.992;8.422;2022-12-07T01:50:47;12.07;;;5.97;;
5458;SDS011;2752;49.992;8.422;2022-12-07T01:53:16;16.47;;;7.10;;
5458;SDS011;2752;49.992;8.422;2022-12-07T01:55:44;13.40;;;6.73;;
5458;SDS011;2752;49.992;8.422;2022-12-07T01:58:13;11.83;;;6.70;;
5458;SDS011;2752;49.992;8.422;2022-12-07T02:00:42;16.03;;;7.27;;
5458;SDS011;2752;49.992;8.422;2022-12-07T02:03:09;12.03;;;6.73;;
5458;SDS011;2752;49.992;8.422;2022-12-07T02:05:42;12.77;;;6.10;;
5458;SDS011;2752;49.992;8.422;2022-12-07T02:08:09;15.37;;;6.53;;
5458;SDS011;2752;49.992;8.422;2022-12-07T02:10:38;12.63;;;5.73;;
5458;SDS011;2752;49.992;8.422;2022-12-07T02:13:05;11.80;;;5.60;;
5458;SDS011;2752;49.992;8.422;2022-12-07T02:15:39;13.90;;;6.70;;
5458;SDS011;2752;49.992;8.422;2022-12-07T02:18:15;14.87;;;6.73;;
5458;SDS011;2752;49.992;8.422;2022-12-07T02:20:49;18.27;;;6.23;;
5458;SDS011;2752;49.992;8.422;2022-12-07T02:29:32;14.03;;;6.33;;
5458;SDS011;2752;49.992;8.422;2022-12-07T02:32:06;17.67;;;7.13;;
5458;SDS011;2752;49.992;8.422;2022-12-07T02:34:39;16.47;;;7.13;;
5458;SDS011;2752;49.992;8.422;2022-12-07T02:37:21;10.67;;;5.50;;
5458;SDS011;2752;49.992;8.422;2022-12-07T02:39:55;12.23;;;6.03;;
5458;SDS011;2752;49.992;8.422;2022-12-07T02:42:27;11.00;;;6.07;;
5458;SDS011;2752;49.992;8.422;2022-12-07T02:44:59;13.10;;;6.47;;
5458;SDS011;2752;49.992;8.422;2022-12-07T02:47:28;14.10;;;6.20;;
5458;SDS011;2752;49.992;8.422;2022-12-07T02:49:55;14.53;;;6.00;;
5458;SDS011;2752;49.992;8.422;2022-12-07T02:52:22;13.27;;;6.37;;
5458;SDS011;2752;49.992;8.422;2022-12-07T02:54:49;11.00;;;6.00;;
5458;SDS011;2752;49.992;8.422;2022-12-07T02:57:26;10.73;;;5.87;;
5458;SDS011;2752;49.992;8.422;2022-12-07T03:00:06;11.53;;;5.60;;
5458;SDS011;2752;49.992;8.422;2022-12-07T03:02:37;15.00;;;6.47;;
5458;SDS011;2752;49.992;8.422;2022-12-07T03:05:13;11.77;;;5.47;;
5458;SDS011;2752;49.992;8.422;2022-12-07T03:07:51;16.97;;;6.00;;
5458;SDS011;2752;49.992;8.422;2022-12-07T03:10:27;11.80;;;5.60;;
5458;SDS011;2752;49.992;8.422;2022-12-07T03:13:02;12.63;;;6.33;;
5458;SDS011;2752;49.992;8.422;2022-12-07T03:15:35;11.07;;;6.40;;
5458;SDS011;2752;49.992;8.422;2022-12-07T03:18:06;10.07;;;5.90;;
5458;SDS011;2752;49.992;8.422;2022-12-07T03:20:35;10.80;;;5.40;;
5458;SDS011;2752;49.992;8.422;2022-12-07T03:23:03;12.63;;;6.40;;
5458;SDS011;2752;49.992;8.422;2022-12-07T03:25:34;11.87;;;5.77;;
5458;SDS011;2752;49.992;8.422;2022-12-07T03:28:05;15.47;;;6.20;;
5458;SDS011;2752;49.992;8.422;2022-12-07T03:30:36;12.50;;;5.20;;
5458;SDS011;2752;49.992;8.422;2022-12-07T03:33:08;15.10;;;6.23;;
5458;SDS011;2752;49.992;8.422;2022-12-07T03:35:40;9.37;;;4.90;;
5458;SDS011;2752;49.992;8.422;2022-12-07T03:38:12;11.07;;;5.07;;
5458;SDS011;2752;49.992;8.422;2022-12-07T03:40:43;11.07;;;5.67;;
5458;SDS011;2752;49.992;8.422;2022-12-07T03:43:14;10.73;;;5.30;;
5458;SDS011;2752;49.992;8.422;2022-12-07T03:45:44;15.10;;;6.63;;
5458;SDS011;2752;49.992;8.422;2022-12-07T03:48:20;11.20;;;4.80;;
5458;SDS011;2752;49.992;8.422;2022-12-07T03:50:52;10.80;;;5.53;;
5458;SDS011;2752;49.992;8.422;2022-12-07T03:53:22;13.20;;;6.30;;
5458;SDS011;2752;49.992;8.422;2022-12-07T03:55:55;16.10;;;6.67;;
5458;SDS011;2752;49.992;8.422;2022-12-07T03:58:24;11.03;;;5.70;;
5458;SDS011;2752;49.992;8.422;2022-12-07T04:00:53;10.57;;;5.63;;
5458;SDS011;2752;49.992;8.422;2022-12-07T04:03:20;12.90;;;5.50;;
5458;SDS011;2752;49.992;8.422;2022-12-07T04:05:47;12.67;;;5.97;;
5458;SDS011;2752;49.992;8.422;2022-12-07T04:08:14;11.00;;;4.93;;
5458;SDS011;2752;49.992;8.422;2022-12-07T04:10:41;10.93;;;5.13;;
5458;SDS011;2752;49.992;8.422;2022-12-07T04:13:08;11.63;;;5.17;;
5458;SDS011;2752;49.992;8.422;2022-12-07T04:15:34;9.83;;;5.90;;
5458;SDS011;2752;49.992;8.422;2022-12-07T04:18:02;9.83;;;5.20;;
5458;SDS011;2752;49.992;8.422;2022-12-07T04:20:29;12.30;;;5.10;;
5458;SDS011;2752;49.992;8.422;2022-12-07T04:22:56;9.57;;;4.67;;
5458;SDS011;2752;49.992;8.422;2022-12-07T04:25:22;11.63;;;5.77;;
5458;SDS011;2752;49.992;8.422;2022-12-07T04:27:49;11.63;;;5.30;;
5458;SDS011;2752;49.992;8.422;2022-12-07T04:30:16;12.67;;;5.70;;
5458;SDS011;2752;49.992;8.422;2022-12-07T04:32:43;10.40;;;5.60;;
5458;SDS011;2752;49.992;8.422;2022-12-07T04:35:11;8.33;;;4.60;;
5458;SDS011;2752;49.992;8.422;2022-12-07T04:37:37;17.83;;;6.20;;
5458;SDS011;2752;49.992;8.422;2022-12-07T04:40:05;9.93;;;4.80;;
5458;SDS011;2752;49.992;8.422;2022-12-07T04:42:33;10.63;;;5.50;;
5458;SDS011;2752;49.992;8.422;2022-12-07T04:45:00;12.70;;;5.93;;
5458;SDS011;2752;49.992;8.422;2022-12-07T04:47:26;11.50;;;6.03;;
5458;SDS011;2752;49.992;8.422;2022-12-07T04:49:53;9.47;;;4.73;;
5458;SDS011;2752;49.992;8.422;2022-12-07T04:52:21;12.50;;;6.00;;
5458;SDS011;2752;49.992;8.422;2022-12-07T04:54:48;13.20;;;5.70;;
5458;SDS011;2752;49.992;8.422;2022-12-07T04:57:15;13.70;;;6.83;;
5458;SDS011;2752;49.992;8.422;2022-12-07T04:59:41;10.40;;;4.57;;
5458;SDS011;2752;49.992;8.422;2022-12-07T05:02:08;13.33;;;4.57;;
5458;SDS011;2752;49.992;8.422;2022-12-07T05:04:35;9.90;;;4.53;;
5458;SDS011;2752;49.992;8.422;2022-12-07T05:07:01;19.30;;;5.63;;
5458;SDS011;2752;49.992;8.422;2022-12-07T05:09:29;9.67;;;5.70;;
5458;SDS011;2752;49.992;8.422;2022-12-07T05:11:56;9.40;;;4.93;;
5458;SDS011;2752;49.992;8.422;2022-12-07T05:14:23;12.93;;;5.60;;
5458;SDS011;2752;49.992;8.422;2022-12-07T05:16:50;11.27;;;5.17;;
5458;SDS011;2752;49.992;8.422;2022-12-07T05:19:18;15.87;;;5.30;;
5458;SDS011;2752;49.992;8.422;2022-12-07T05:21:45;13.90;;;6.00;;
5458;SDS011;2752;49.992;8.422;2022-12-07T05:24:13;12.70;;;6.13;;
5458;SDS011;2752;49.992;8.422;2022-12-07T05:26:42;11.00;;;5.20;;
5458;SDS011;2752;49.992;8.422;2022-12-07T05:29:10;10.13;;;5.70;;
5458;SDS011;2752;49.992;8.422;2022-12-07T05:31:38;13.33;;;5.90;;
5458;SDS011;2752;49.992;8.422;2022-12-07T05:34:05;13.10;;;6.07;;
5458;SDS011;2752;49.992;8.422;2022-12-07T05:36:31;13.77;;;6.40;;
5458;SDS011;2752;49.992;8.422;2022-12-07T05:38:58;19.63;;;5.80;;
5458;SDS011;2752;49.992;8.422;2022-12-07T05:41:25;13.77;;;6.70;;
5458;SDS011;2752;49.992;8.422;2022-12-07T05:44:11;11.17;;;5.70;;
5458;SDS011;2752;49.992;8.422;2022-12-07T05:46:37;14.53;;;6.97;;
5458;SDS011;2752;49.992;8.422;2022-12-07T05:49:04;11.70;;;5.67;;
5458;SDS011;2752;49.992;8.422;2022-12-07T05:51:31;15.13;;;7.00;;
5458;SDS011;2752;49.992;8.422;2022-12-07T05:53:57;14.90;;;7.47;;
5458;SDS011;2752;49.992;8.422;2022-12-07T05:56:24;15.03;;;7.10;;
5458;SDS011;2752;49.992;8.422;2022-12-07T05:58:51;16.57;;;6.70;;
5458;SDS011;2752;49.992;8.422;2022-12-07T06:01:37;14.30;;;7.17;;
5458;SDS011;2752;49.992;8.422;2022-12-07T06:04:04;13.30;;;6.43;;
5458;SDS011;2752;49.992;8.422;2022-12-07T06:06:30;15.30;;;7.23;;
5458;SDS011;2752;49.992;8.422;2022-12-07T06:08:57;16.90;;;6.57;;
5458;SDS011;2752;49.992;8.422;2022-12-07T06:11:24;12.90;;;6.60;;
5458;SDS011;2752;49.992;8.422;2022-12-07T06:14:08;14.60;;;7.77;;
5458;SDS011;2752;49.992;8.422;2022-12-07T06:16:36;14.67;;;7.17;;
5458;SDS011;2752;49.992;8.422;2022-12-07T06:19:03;15.57;;;6.73;;
5458;SDS011;2752;49.992;8.422;2022-12-07T06:21:30;24.43;;;7.30;;
5458;SDS011;2752;49.992;8.422;2022-12-07T06:23:57;21.87;;;9.00;;
5458;SDS011;2752;49.992;8.422;2022-12-07T06:26:23;14.03;;;7.53;;
5458;SDS011;2752;49.992;8.422;2022-12-07T06:28:50;16.10;;;7.70;;
5458;SDS011;2752;49.992;8.422;2022-12-07T06:31:17;14.97;;;6.90;;
5458;SDS011;2752;49.992;8.422;2022-12-07T06:33:45;18.00;;;8.23;;
5458;SDS011;2752;49.992;8.422;2022-12-07T06:36:11;18.63;;;8.43;;
5458;SDS011;2752;49.992;8.422;2022-12-07T06:38:38;16.30;;;7.43;;
5458;SDS011;2752;49.992;8.422;2022-12-07T06:41:05;15.00;;;8.17;;
5458;SDS011;2752;49.992;8.422;2022-12-07T06:43:32;14.47;;;7.70;;
5458;SDS011;2752;49.992;8.422;2022-12-07T06:45:59;16.60;;;7.87;;
5458;SDS011;2752;49.992;8.422;2022-12-07T06:48:25;20.77;;;8.57;;
5458;SDS011;2752;49.992;8.422;2022-12-07T06:50:53;15.00;;;7.43;;
5458;SDS011;2752;49.992;8.422;2022-12-07T06:53:20;15.60;;;8.40;;
5458;SDS011;2752;49.992;8.422;2022-12-07T06:55:47;20.33;;;8.60;;
5458;SDS011;2752;49.992;8.422;2022-12-07T06:58:14;15.43;;;7.90;;
5458;SDS011;2752;49.992;8.422;2022-12-07T07:00:40;13.13;;;7.37;;
5458;SDS011;2752;49.992;8.422;2022-12-07T07:03:07;13.30;;;7.63;;
5458;SDS011;2752;49.992;8.422;2022-12-07T07:05:34;14.40;;;6.80;;
5458;SDS011;2752;49.992;8.422;2022-12-07T07:08:02;21.23;;;8.10;;
5458;SDS011;2752;49.992;8.422;2022-12-07T07:10:29;17.00;;;8.37;;
5458;SDS011;2752;49.992;8.422;2022-12-07T07:12:56;19.27;;;7.60;;
5458;SDS011;2752;49.992;8.422;2022-12-07T07:15:23;16.67;;;8.70;;
5458;SDS011;2752;49.992;8.422;2022-12-07T07:17:50;17.00;;;8.50;;
5458;SDS011;2752;49.992;8.422;2022-12-07T07:20:16;15.90;;;7.73;;
5458;SDS011;2752;49.992;8.422;2022-12-07T07:22:43;18.40;;;7.47;;
5458;SDS011;2752;49.992;8.422;2022-12-07T07:25:11;19.60;;;7.47;;
5458;SDS011;2752;49.992;8.422;2022-12-07T07:27:38;13.20;;;6.80;;
5458;SDS011;2752;49.992;8.422;2022-12-07T07:30:05;11.80;;;7.00;;
5458;SDS011;2752;49.992;8.422;2022-12-07T07:32:33;10.47;;;5.87;;
5458;SDS011;2752;49.992;8.422;2022-12-07T07:35:00;17.40;;;7.43;;
5458;SDS011;2752;49.992;8.422;2022-12-07T07:37:26;17.40;;;8.33;;
5458;SDS011;2752;49.992;8.422;2022-12-07T07:39:53;14.50;;;7.20;;
5458;SDS011;2752;49.992;8.422;2022-12-07T07:42:22;14.00;;;6.07;;
5458;SDS011;2752;49.992;8.422;2022-12-07T07:44:48;10.40;;;5.60;;
5458;SDS011;2752;49.992;8.422;2022-12-07T07:47:15;10.77;;;6.43;;
5458;SDS011;2752;49.992;8.422;2022-12-07T07:49:42;12.37;;;7.17;;
5458;SDS011;2752;49.992;8.422;2022-12-07T07:52:10;13.37;;;6.33;;
5458;SDS011;2752;49.992;8.422;2022-12-07T07:54:37;10.63;;;6.00;;
5458;SDS011;2752;49.992;8.422;2022-12-07T07:57:04;16.70;;;6.43;;
5458;SDS011;2752;49.992;8.422;2022-12-07T07:59:32;12.17;;;6.87;;
5458;SDS011;2752;49.992;8.422;2022-12-07T08:01:58;14.00;;;7.00;;
5458;SDS011;2752;49.992;8.422;2022-12-07T08:04:25;13.60;;;6.90;;
5458;SDS011;2752;49.992;8.422;2022-12-07T08:06:52;13.90;;;6.77;;
5458;SDS011;2752;49.992;8.422;2022-12-07T08:09:19;10.87;;;6.00;;
5458;SDS011;2752;49.992;8.422;2022-12-07T08:11:45;15.43;;;6.63;;
5458;SDS011;2752;49.992;8.422;2022-12-07T08:14:12;15.50;;;7.83;;
5458;SDS011;2752;49.992;8.422;2022-12-07T08:16:40;13.60;;;7.23;;
5458;SDS011;2752;49.992;8.422;2022-12-07T08:19:07;11.70;;;6.53;;
5458;SDS011;2752;49.992;8.422;2022-12-07T08:21:33;15.33;;;8.03;;
5458;SDS011;2752;49.992;8.422;2022-12-07T08:24:00;17.80;;;7.17;;
5458;SDS011;2752;49.992;8.422;2022-12-07T08:26:27;14.57;;;7.53;;
5458;SDS011;2752;49.992;8.422;2022-12-07T08:28:53;21.63;;;6.67;;
5458;SDS011;2752;49.992;8.422;2022-12-07T08:31:20;14.37;;;7.50;;
5458;SDS011;2752;49.992;8.422;2022-12-07T08:33:48;15.83;;;6.60;;
5458;SDS011;2752;49.992;8.422;2022-12-07T08:36:15;13.97;;;7.57;;
5458;SDS011;2752;49.992;8.422;2022-12-07T08:38:43;13.40;;;6.97;;
5458;SDS011;2752;49.992;8.422;2022-12-07T08:41:09;11.93;;;6.43;;
5458;SDS011;2752;49.992;8.422;2022-12-07T08:43:36;17.37;;;8.13;;
5458;SDS011;2752;49.992;8.422;2022-12-07T08:46:06;15.43;;;6.17;;
5458;SDS011;2752;49.992;8.422;2022-12-07T08:48:36;14.60;;;6.93;;
5458;SDS011;2752;49.992;8.422;2022-12-07T08:51:07;10.20;;;5.53;;
5458;SDS011;2752;49.992;8.422;2022-12-07T08:53:34;14.63;;;7.00;;
5458;SDS011;2752;49.992;8.422;2022-12-07T08:56:02;13.43;;;7.27;;
5458;SDS011;2752;49.992;8.422;2022-12-07T08:58:31;12.03;;;6.67;;
5458;SDS011;2752;49.992;8.422;2022-12-07T09:00:58;12.07;;;6.53;;
5458;SDS011;2752;49.992;8.422;2022-12-07T09:03:25;10.87;;;5.90;;
5458;SDS011;2752;49.992;8.422;2022-12-07T09:05:51;12.20;;;6.60;;
5458;SDS011;2752;49.992;8.422;2022-12-07T09:08:20;14.70;;;6.90;;
5458;SDS011;2752;49.992;8.422;2022-12-07T09:10:51;17.20;;;7.20;;
5458;SDS011;2752;49.992;8.422;2022-12-07T09:13:18;13.60;;;7.20;;
5458;SDS011;2752;49.992;8.422;2022-12-07T09:15:44;21.50;;;7.90;;
5458;SDS011;2752;49.992;8.422;2022-12-07T09:18:11;15.53;;;7.83;;
5458;SDS011;2752;49.992;8.422;2022-12-07T09:20:38;11.43;;;7.47;;
5458;SDS011;2752;49.992;8.422;2022-12-07T09:23:05;24.27;;;8.60;;
5458;SDS011;2752;49.992;8.422;2022-12-07T09:25:33;14.97;;;8.33;;
5458;SDS011;2752;49.992;8.422;2022-12-07T09:28:00;17.33;;;8.20;;
5458;SDS011;2752;49.992;8.422;2022-12-07T09:30:27;15.37;;;8.43;;
5458;SDS011;2752;49.992;8.422;2022-12-07T09:32:54;18.80;;;9.00;;
5458;SDS011;2752;49.992;8.422;2022-12-07T09:35:22;18.90;;;9.43;;
5458;SDS011;2752;49.992;8.422;2022-12-07T09:37:50;13.23;;;8.23;;
5458;SDS011;2752;49.992;8.422;2022-12-07T09:40:17;13.40;;;7.80;;
5458;SDS011;2752;49.992;8.422;2022-12-07T09:42:50;19.23;;;8.27;;
5458;SDS011;2752;49.992;8.422;2022-12-07T09:45:21;26.10;;;8.30;;
5458;SDS011;2752;49.992;8.422;2022-12-07T09:47:51;16.53;;;7.80;;
5458;SDS011;2752;49.992;8.422;2022-12-07T09:50:19;24.63;;;10.87;;
5458;SDS011;2752;49.992;8.422;2022-12-07T09:52:47;18.27;;;8.57;;
5458;SDS011;2752;49.992;8.422;2022-12-07T09:55:16;17.67;;;9.00;;
5458;SDS011;2752;49.992;8.422;2022-12-07T09:57:47;17.37;;;8.53;;
5458;SDS011;2752;49.992;8.422;2022-12-07T10:00:18;14.87;;;7.70;;
5458;SDS011;2752;49.992;8.422;2022-12-07T10:02:47;19.03;;;9.00;;
5458;SDS011;2752;49.992;8.422;2022-12-07T10:05:20;17.97;;;7.93;;
5458;SDS011;2752;49.992;8.422;2022-12-07T10:07:51;20.13;;;10.73;;
5458;SDS011;2752;49.992;8.422;2022-12-07T10:10:19;16.20;;;8.33;;
5458;SDS011;2752;49.992;8.422;2022-12-07T10:12:53;18.30;;;8.77;;
5458;SDS011;2752;49.992;8.422;2022-12-07T10:18:16;19.07;;;7.97;;
5458;SDS011;2752;49.992;8.422;2022-12-07T10:20:59;17.67;;;8.20;;
5458;SDS011;2752;49.992;8.422;2022-12-07T10:23:28;17.30;;;8.50;;
5458;SDS011;2752;49.992;8.422;2022-12-07T10:25:55;13.93;;;8.30;;
5458;SDS011;2752;49.992;8.422;2022-12-07T10:28:22;21.43;;;9.00;;
5458;SDS011;2752;49.992;8.422;2022-12-07T10:30:55;19.10;;;7.40;;
5458;SDS011;2752;49.992;8.422;2022-12-07T10:33:28;17.27;;;7.90;;
5458;SDS011;2752;49.992;8.422;2022-12-07T10:35:56;14.93;;;7.50;;
5458;SDS011;2752;49.992;8.422;2022-12-07T10:38:24;13.90;;;5.77;;
5458;SDS011;2752;49.992;8.422;2022-12-07T10:41:02;10.40;;;6.00;;
5458;SDS011;2752;49.992;8.422;2022-12-07T10:43:31;15.13;;;5.67;;
5458;SDS011;2752;49.992;8.422;2022-12-07T10:46:15;12.70;;;4.53;;
5458;SDS011;2752;49.992;8.422;2022-12-07T10:49:13;11.70;;;4.90;;
5458;SDS011;2752;49.992;8.422;2022-12-07T10:51:58;9.67;;;4.90;;
5458;SDS011;2752;49.992;8.422;2022-12-07T10:54:33;15.80;;;4.60;;
5458;SDS011;2752;49.992;8.422;2022-12-07T10:57:10;11.10;;;4.80;;
5458;SDS011;2752;49.992;8.422;2022-12-07T10:59:58;7.07;;;4.60;;
5458;SDS011;2752;49.992;8.422;2022-12-07T11:02:45;7.77;;;4.50;;
5458;SDS011;2752;49.992;8.422;2022-12-07T11:05:44;11.40;;;4.77;;
5458;SDS011;2752;49.992;8.422;2022-12-07T11:08:17;12.00;;;4.30;;
5458;SDS011;2752;49.992;8.422;2022-12-07T11:10:56;9.13;;;4.23;;
5458;SDS011;2752;49.992;8.422;2022-12-07T11:13:28;8.20;;;4.13;;
5458;SDS011;2752;49.992;8.422;2022-12-07T11:16:05;7.10;;;3.47;;
5458;SDS011;2752;49.992;8.422;2022-12-07T11:18:58;9.20;;;3.90;;
5458;SDS011;2752;49.992;8.422;2022-12-07T11:21:42;5.90;;;2.67;;
5458;SDS011;2752;49.992;8.422;2022-12-07T11:24:15;6.50;;;3.17;;
5458;SDS011;2752;49.992;8.422;2022-12-07T11:26:50;6.27;;;2.77;;
5458;SDS011;2752;49.992;8.422;2022-12-07T11:29:28;8.07;;;3.08;;
5458;SDS011;2752;49.992;8.422;2022-12-07T11:32:29;4.70;;;2.10;;
5458;SDS011;2752;49.992;8.422;2022-12-07T11:35:21;6.17;;;2.50;;
5458;SDS011;2752;49.992;8.422;2022-12-07T11:37:56;5.27;;;1.97;;
5458;SDS011;2752;49.992;8.422;2022-12-07T11:40:27;19.50;;;1.97;;
5458;SDS011;2752;49.992;8.422;2022-12-07T11:42:59;3.97;;;1.60;;
5458;SDS011;2752;49.992;8.422;2022-12-07T11:45:32;6.70;;;1.90;;
5458;SDS011;2752;49.992;8.422;2022-12-07T11:48:01;7.03;;;2.93;;
5458;SDS011;2752;49.992;8.422;2022-12-07T11:50:33;9.00;;;2.87;;
5458;SDS011;2752;49.992;8.422;2022-12-07T11:53:10;9.87;;;3.43;;
5458;SDS011;2752;49.992;8.422;2022-12-07T11:55:47;5.57;;;2.63;;
5458;SDS011;2752;49.992;8.422;2022-12-07T11:58:22;6.18;;;2.90;;
5458;SDS011;2752;49.992;8.422;2022-12-07T12:01:08;8.48;;;3.40;;
5458;SDS011;2752;49.992;8.422;2022-12-07T12:03:42;3.57;;;2.60;;
5458;SDS011;2752;49.992;8.422;2022-12-07T12:06:13;7.43;;;2.03;;
5458;SDS011;2752;49.992;8.422;2022-12-07T12:08:41;3.57;;;2.33;;
5458;SDS011;2752;49.992;8.422;2022-12-07T12:11:14;3.30;;;1.50;;
5458;SDS011;2752;49.992;8.422;2022-12-07T12:16:42;1.70;;;1.33;;
5458;SDS011;2752;49.992;8.422;2022-12-07T12:19:32;11.10;;;2.30;;
5458;SDS011;2752;49.992;8.422;2022-12-07T12:22:06;4.83;;;1.70;;
5458;SDS011;2752;49.992;8.422;2022-12-07T12:24:38;6.30;;;1.80;;
5458;SDS011;2752;49.992;8.422;2022-12-07T12:27:07;2.17;;;1.23;;
5458;SDS011;2752;49.992;8.422;2022-12-07T12:29:41;4.30;;;1.77;;
5458;SDS011;2752;49.992;8.422;2022-12-07T12:32:13;2.70;;;1.73;;
5458;SDS011;2752;49.992;8.422;2022-12-07T12:34:57;4.97;;;1.80;;
5458;SDS011;2752;49.992;8.422;2022-12-07T12:37:44;4.70;;;1.67;;
5458;SDS011;2752;49.992;8.422;2022-12-07T12:49:15;1.80;;;0.93;;
5458;SDS011;2752;49.992;8.422;2022-12-07T12:55:16;4.13;;;1.80;;
5458;SDS011;2752;49.992;8.422;2022-12-07T12:57:46;3.13;;;1.17;;
5458;SDS011;2752;49.992;8.422;2022-12-07T13:00:35;7.10;;;2.40;;
5458;SDS011;2752;49.992;8.422;2022-12-07T13:03:02;3.23;;;1.70;;
5458;SDS011;2752;49.992;8.422;2022-12-07T13:05:30;2.57;;;1.30;;
5458;SDS011;2752;49.992;8.422;2022-12-07T13:07:58;3.70;;;1.77;;
5458;SDS011;2752;49.992;8.422;2022-12-07T13:10:38;14.73;;;1.30;;
5458;SDS011;2752;49.992;8.422;2022-12-07T13:18:57;6.40;;;1.40;;
5458;SDS011;2752;49.992;8.422;2022-12-07T13:24:17;5.23;;;1.10;;
5458;SDS011;2752;49.992;8.422;2022-12-07T13:26:45;1.67;;;1.20;;
5458;SDS011;2752;49.992;8.422;2022-12-07T13:29:12;2.23;;;1.03;;
5458;SDS011;2752;49.992;8.422;2022-12-07T13:31:41;4.10;;;1.30;;
5458;SDS011;2752;49.992;8.422;2022-12-07T13:34:29;3.17;;;1.50;;
5458;SDS011;2752;49.992;8.422;2022-12-07T13:36:57;5.30;;;1.30;;
5458;SDS011;2752;49.992;8.422;2022-12-07T13:39:26;2.07;;;1.67;;
5458;SDS011;2752;49.992;8.422;2022-12-07T13:41:54;5.53;;;1.80;;
5458;SDS011;2752;49.992;8.422;2022-12-07T13:44:26;4.23;;;1.63;;
5458;SDS011;2752;49.992;8.422;2022-12-07T13:46:57;5.53;;;1.50;;
5458;SDS011;2752;49.992;8.422;2022-12-07T13:49:31;6.57;;;1.60;;
5458;SDS011;2752;49.992;8.422;2022-12-07T13:52:08;2.23;;;1.47;;
5458;SDS011;2752;49.992;8.422;2022-12-07T13:54:43;3.00;;;1.50;;
5458;SDS011;2752;49.992;8.422;2022-12-07T13:57:11;9.53;;;1.80;;
5458;SDS011;2752;49.992;8.422;2022-12-07T13:59:38;3.03;;;1.67;;
5458;SDS011;2752;49.992;8.422;2022-12-07T14:02:16;6.93;;;1.53;;
5458;SDS011;2752;49.992;8.422;2022-12-07T14:04:47;6.23;;;1.80;;
5458;SDS011;2752;49.992;8.422;2022-12-07T14:07:19;5.83;;;1.50;;
5458;SDS011;2752;49.992;8.422;2022-12-07T14:09:55;6.10;;;1.83;;
5458;SDS011;2752;49.992;8.422;2022-12-07T14:12:23;3.60;;;1.80;;
5458;SDS011;2752;49.992;8.422;2022-12-07T14:14:51;7.80;;;1.70;;
5458;SDS011;2752;49.992;8.422;2022-12-07T14:17:19;9.93;;;2.73;;
5458;SDS011;2752;49.992;8.422;2022-12-07T14:19:50;3.27;;;2.00;;
5458;SDS011;2752;49.992;8.422;2022-12-07T14:22:24;4.37;;;2.40;;
5458;SDS011;2752;49.992;8.422;2022-12-07T14:24:59;3.17;;;2.30;;
5458;SDS011;2752;49.992;8.422;2022-12-07T14:27:50;3.60;;;1.40;;
5458;SDS011;2752;49.992;8.422;2022-12-07T14:30:23;9.23;;;2.00;;
5458;SDS011;2752;49.992;8.422;2022-12-07T14:32:52;11.73;;;1.77;;
5458;SDS011;2752;49.992;8.422;2022-12-07T14:35:22;1.93;;;1.70;;
5458;SDS011;2752;49.992;8.422;2022-12-07T14:37:49;6.83;;;1.70;;
5458;SDS011;2752;49.992;8.422;2022-12-07T14:40:17;7.20;;;1.83;;
5458;SDS011;2752;49.992;8.422;2022-12-07T14:42:45;2.73;;;1.50;;
5458;SDS011;2752;49.992;8.422;2022-12-07T14:45:15;3.33;;;1.87;;
5458;SDS011;2752;49.992;8.422;2022-12-07T14:47:43;4.83;;;1.93;;
5458;SDS011;2752;49.992;8.422;2022-12-07T14:50:11;3.60;;;1.60;;
5458;SDS011;2752;49.992;8.422;2022-12-07T14:52:40;6.37;;;1.87;;
5458;SDS011;2752;49.992;8.422;2022-12-07T14:55:12;4.20;;;2.00;;
5458;SDS011;2752;49.992;8.422;2022-12-07T14:57:41;5.63;;;2.10;;
5458;SDS011;2752;49.992;8.422;2022-12-07T15:00:09;6.60;;;2.17;;
5458;SDS011;2752;49.992;8.422;2022-12-07T15:02:40;5.90;;;2.50;;
5458;SDS011;2752;49.992;8.422;2022-12-07T15:05:07;5.83;;;2.00;;
5458;SDS011;2752;49.992;8.422;2022-12-07T15:07:34;5.20;;;1.77;;
5458;SDS011;2752;49.992;8.422;2022-12-07T15:10:03;3.93;;;1.90;;
5458;SDS011;2752;49.992;8.422;2022-12-07T15:12:30;3.70;;;2.10;;
5458;SDS011;2752;49.992;8.422;2022-12-07T15:14:57;4.83;;;2.23;;
5458;SDS011;2752;49.992;8.422;2022-12-07T15:17:26;5.03;;;2.20;;
5458;SDS011;2752;49.992;8.422;2022-12-07T15:19:52;5.17;;;2.30;;
5458;SDS011;2752;49.992;8.422;2022-12-07T15:22:19;6.73;;;2.63;;
5458;SDS011;2752;49.992;8.422;2022-12-07T15:24:46;5.17;;;2.70;;
5458;SDS011;2752;49.992;8.422;2022-12-07T15:27:14;9.60;;;3.37;;
5458;SDS011;2752;49.992;8.422;2022-12-07T15:29:40;6.27;;;2.53;;
5458;SDS011;2752;49.992;8.422;2022-12-07T15:32:08;4.80;;;2.10;;
5458;SDS011;2752;49.992;8.422;2022-12-07T15:34:35;9.07;;;3.17;;
5458;SDS011;2752;49.992;8.422;2022-12-07T15:37:02;8.50;;;3.27;;
5458;SDS011;2752;49.992;8.422;2022-12-07T15:39:28;5.60;;;2.30;;
5458;SDS011;2752;49.992;8.422;2022-12-07T15:41:55;9.67;;;2.30;;
5458;SDS011;2752;49.992;8.422;2022-12-07T15:44:23;4.53;;;1.87;;
5458;SDS011;2752;49.992;8.422;2022-12-07T15:47:08;4.50;;;1.50;;
5458;SDS011;2752;49.992;8.422;2022-12-07T15:49:35;9.43;;;2.00;;
5458;SDS011;2752;49.992;8.422;2022-12-07T15:52:01;3.87;;;2.10;;
5458;SDS011;2752;49.992;8.422;2022-12-07T15:54:29;6.70;;;3.17;;
5458;SDS011;2752;49.992;8.422;2022-12-07T15:56:57;2.67;;;1.20;;